Time;durP1;ratioP1;P1;durP2;ratioP2;P2;SDS_P1;SDS_P2;PMS_P1;PMS_P2;Temp;Humidity;BMP_temperature;BMP_pressure;BME280_temperature;BME280_humidity;BME280_pressure;Samples;Min_cycle;Max_cycle;Signal;HPM_P1;HPM_P2
2022/06/19 00:01:35;;;;;;;9.87;3.10;;;17.20;93.60;;;;;;5154870;27;20430;-77
2022/06/19 00:04:05;;;;;;;13.90;3.53;;;17.10;93.60;;;;;;5136954;27;20875;-76
2022/06/19 00:06:35;;;;;;;9.00;3.97;;;17.10;93.70;;;;;;5136939;27;20464;-77
2022/06/19 00:09:04;;;;;;;11.07;3.57;;;17.00;93.70;;;;;;5136481;27;20415;-77
2022/06/19 00:11:33;;;;;;;16.60;3.97;;;17.00;93.80;;;;;;5154672;27;20440;-77
2022/06/19 00:14:02;;;;;;;11.30;3.87;;;17.00;93.90;;;;;;5138171;27;20416;-77
2022/06/19 00:16:31;;;;;;;9.73;3.60;;;16.90;93.90;;;;;;5139904;27;20440;-76
2022/06/19 00:19:00;;;;;;;13.07;3.87;;;16.80;94.00;;;;;;5140121;27;20459;-77
2022/06/19 00:21:28;;;;;;;11.40;3.80;;;16.80;94.00;;;;;;5160044;27;20614;-77
2022/06/19 00:23:56;;;;;;;10.30;3.80;;;16.80;94.10;;;;;;5159736;27;20498;-77
2022/06/19 00:26:25;;;;;;;10.00;3.73;;;16.80;94.20;;;;;;5158612;27;20484;-78
2022/06/19 00:28:54;;;;;;;11.90;4.20;;;16.70;94.20;;;;;;5158711;27;20858;-77
2022/06/19 00:31:22;;;;;;;12.90;3.67;;;16.70;94.30;;;;;;5139973;27;20465;-77
2022/06/19 00:33:51;;;;;;;7.80;3.03;;;16.70;94.30;;;;;;5158674;27;20476;-77
2022/06/19 00:36:21;;;;;;;8.40;3.60;;;16.60;94.30;;;;;;5140733;27;20440;-77
2022/06/19 00:38:49;;;;;;;12.03;3.93;;;16.60;94.40;;;;;;5159242;27;20934;-78
2022/06/19 00:41:17;;;;;;;9.37;3.40;;;16.60;94.70;;;;;;5141156;27;20433;-77
2022/06/19 00:43:57;;;;;;;18.97;6.50;;;16.50;94.50;;;;;;5159778;27;20430;-77
2022/06/19 00:46:47;;;;;;;12.00;3.80;;;16.50;94.60;;;;;;5140087;27;20465;-77
2022/06/19 00:49:19;;;;;;;18.20;4.37;;;16.50;94.60;;;;;;5139425;27;20778;-76
2022/06/19 00:51:51;;;;;;;10.23;4.10;;;16.50;94.60;;;;;;5157957;27;20517;-76
2022/06/19 00:54:21;;;;;;;13.20;4.23;;;16.50;94.70;;;;;;5139218;27;20432;-76
2022/06/19 00:56:50;;;;;;;10.90;4.73;;;16.50;94.70;;;;;;5139042;27;20556;-76
2022/06/19 00:59:19;;;;;;;12.40;3.70;;;16.50;94.70;;;;;;5139407;27;20416;-77
2022/06/19 01:01:47;;;;;;;14.03;4.90;;;16.40;94.80;;;;;;5139653;27;20430;-77
2022/06/19 01:04:22;;;;;;;10.30;4.20;;;16.40;94.90;;;;;;5139199;27;20420;-76
2022/06/19 01:06:50;;;;;;;11.93;4.60;;;16.40;94.90;;;;;;5158618;27;20795;-76
2022/06/19 01:09:18;;;;;;;15.57;4.43;;;16.40;95.00;;;;;;5157293;27;20912;-76
2022/06/19 01:11:47;;;;;;;13.43;4.93;;;16.40;95.00;;;;;;5138710;27;20483;-76
2022/06/19 01:14:19;;;;;;;10.43;4.17;;;16.40;95.10;;;;;;5140014;27;20442;-77
2022/06/19 01:16:47;;;;;;;10.30;4.20;;;16.30;95.10;;;;;;5157698;27;20432;-76
2022/06/19 01:19:23;;;;;;;15.93;4.50;;;16.30;95.50;;;;;;5138936;27;20423;-78
2022/06/19 01:21:59;;;;;;;13.90;4.00;;;16.30;95.30;;;;;;5157986;27;20491;-76
2022/06/19 01:24:37;;;;;;;9.83;4.40;;;16.30;95.40;;;;;;5138553;27;21021;-76
2022/06/19 01:28:45;;;;;;;15.70;5.87;;;16.30;95.50;;;;;;5138625;27;20473;-78
2022/06/19 01:30:00;;;;;;;15.37;4.60;;;16.20;95.80;;;;;;5156802;27;20472;-76
2022/06/19 01:32:30;;;;;;;14.47;4.87;;;16.20;95.50;;;;;;5138316;27;20444;-77
2022/06/19 01:35:00;;;;;;;13.13;5.00;;;16.20;95.60;;;;;;5156841;27;20428;-77
2022/06/19 01:37:30;;;;;;;11.83;4.43;;;16.20;95.70;;;;;;5156752;27;20529;-76
2022/06/19 01:40:02;;;;;;;9.27;4.10;;;16.20;95.80;;;;;;5156764;27;21007;-77
2022/06/19 01:42:32;;;;;;;11.50;5.77;;;16.20;95.80;;;;;;5138172;27;20507;-76
2022/06/19 01:45:00;;;;;;;14.73;5.43;;;16.20;95.90;;;;;;5157011;27;20858;-76
2022/06/19 01:47:29;;;;;;;12.77;5.40;;;16.20;96.00;;;;;;5138785;27;20458;-76
2022/06/19 01:50:00;;;;;;;13.97;5.50;;;16.10;96.00;;;;;;5138262;27;20510;-76
2022/06/19 01:52:31;;;;;;;15.20;5.83;;;16.10;96.20;;;;;;5138711;27;20485;-76
2022/06/19 01:55:05;;;;;;;20.53;7.33;;;16.10;96.20;;;;;;5157421;27;20883;-76
2022/06/19 01:57:39;;;;;;;15.00;5.13;;;16.10;96.30;;;;;;5156340;27;20916;-76
2022/06/19 02:00:11;;;;;;;15.40;4.47;;;16.10;96.40;;;;;;5137953;27;20432;-78
2022/06/19 02:02:41;;;;;;;12.57;4.17;;;16.10;96.40;;;;;;5157019;27;20435;-77
2022/06/19 02:05:10;;;;;;;12.87;3.93;;;16.10;96.50;;;;;;5157331;27;20509;-78
2022/06/19 02:07:38;;;;;;;13.23;4.17;;;16.10;96.50;;;;;;5137725;27;20460;-77
2022/06/19 02:10:08;;;;;;;17.10;5.47;;;16.10;96.50;;;;;;5156391;27;20412;-77
2022/06/19 02:12:37;;;;;;;13.20;4.20;;;16.10;96.60;;;;;;5156117;27;21066;-77
2022/06/19 02:15:10;;;;;;;9.80;4.53;;;16.10;96.60;;;;;;5137655;27;20541;-77
2022/06/19 02:17:43;;;;;;;8.37;3.67;;;16.10;96.60;;;;;;5139397;27;20892;-78
2022/06/19 02:20:12;;;;;;;13.57;4.10;;;16.10;96.70;;;;;;5158044;27;20483;-77
2022/06/19 02:22:40;;;;;;;12.33;4.27;;;16.10;96.70;;;;;;5138994;27;20946;-78
2022/06/19 02:25:10;;;;;;;10.60;3.60;;;16.10;97.00;;;;;;5137515;27;20978;-77
2022/06/19 02:27:40;;;;;;;17.37;4.30;;;16.10;96.80;;;;;;5155904;27;20532;-81
2022/06/19 02:30:12;;;;;;;12.87;3.73;;;16.10;96.90;;;;;;5156357;27;20906;-76
2022/06/19 02:32:43;;;;;;;8.33;3.63;;;16.00;96.90;;;;;;5139536;27;20454;-78
2022/06/19 02:35:15;;;;;;;12.10;3.80;;;16.00;97.00;;;;;;5138006;27;20408;-79
2022/06/19 02:37:47;;;;;;;10.70;4.53;;;16.00;97.30;;;;;;5137747;27;21092;-77
2022/06/19 02:40:27;;;;;;;12.00;3.30;;;16.00;97.10;;;;;;5157819;27;20440;-78
2022/06/19 02:42:56;;;;;;;10.23;3.93;;;16.00;97.20;;;;;;5141058;27;20860;-76
2022/06/19 02:45:27;;;;;;;12.03;4.13;;;16.00;97.30;;;;;;5138639;27;20569;-76
2022/06/19 02:47:57;;;;;;;12.60;4.40;;;15.90;97.40;;;;;;5138869;27;20469;-78
2022/06/19 02:50:28;;;;;;;16.63;4.87;;;15.90;97.40;;;;;;5142950;27;20408;-78
2022/06/19 02:52:57;;;;;;;12.30;4.80;;;15.90;97.60;;;;;;5142588;27;20465;-78
2022/06/19 02:55:25;;;;;;;16.63;4.70;;;15.80;97.60;;;;;;5158167;27;20894;-76
2022/06/19 02:57:54;;;;;;;12.10;4.17;;;15.80;97.70;;;;;;5137559;27;21015;-76
2022/06/19 03:00:27;;;;;;;8.23;3.30;;;15.80;97.80;;;;;;5140426;27;20441;-77
2022/06/19 03:02:59;;;;;;;13.90;5.23;;;15.80;97.90;;;;;;5136993;27;20536;-77
2022/06/19 03:05:30;;;;;;;10.37;3.40;;;15.80;97.90;;;;;;5156714;27;20462;-77
2022/06/19 03:07:58;;;;;;;17.47;3.33;;;15.80;98.00;;;;;;5156115;27;21000;-77
2022/06/19 03:10:30;;;;;;;10.80;3.90;;;15.80;98.10;;;;;;5156605;27;20433;-77
2022/06/19 03:12:59;;;;;;;13.63;4.07;;;15.80;98.10;;;;;;5137954;27;20560;-78
2022/06/19 03:15:29;;;;;;;12.70;4.27;;;15.80;98.20;;;;;;5137917;27;20499;-77
2022/06/19 03:17:58;;;;;;;12.27;3.90;;;15.80;98.30;;;;;;5137763;27;20514;-78
2022/06/19 03:20:27;;;;;;;13.53;4.70;;;15.70;98.40;;;;;;5137566;27;20954;-78
2022/06/19 03:22:55;;;;;;;19.70;4.83;;;15.70;98.40;;;;;;5138079;27;20835;-77
2022/06/19 03:25:24;;;;;;;9.53;3.60;;;15.70;98.40;;;;;;5137948;27;20528;-78
2022/06/19 03:27:53;;;;;;;10.30;4.37;;;15.70;98.50;;;;;;5137828;27;20528;-77
2022/06/19 03:30:22;;;;;;;14.67;5.23;;;15.60;98.50;;;;;;5157425;27;20437;-77
2022/06/19 03:32:52;;;;;;;9.83;3.60;;;15.60;98.60;;;;;;5156989;27;20571;-77
2022/06/19 03:35:20;;;;;;;11.87;3.63;;;15.60;98.70;;;;;;5157792;27;20537;-77
2022/06/19 03:37:48;;;;;;;15.90;4.40;;;15.60;98.70;;;;;;5138290;27;20491;-77
2022/06/19 03:40:16;;;;;;;15.43;3.70;;;15.60;98.70;;;;;;5138998;27;20441;-78
2022/06/19 03:42:44;;;;;;;12.70;3.43;;;15.60;98.80;;;;;;5139201;27;20534;-77
2022/06/19 03:45:12;;;;;;;9.00;3.60;;;15.50;99.00;;;;;;5138264;27;20419;-77
2022/06/19 03:47:41;;;;;;;12.70;4.30;;;15.50;98.80;;;;;;5158592;27;20548;-78
2022/06/19 03:50:15;;;;;;;12.30;3.40;;;15.50;98.80;;;;;;5143785;27;20473;-78
2022/06/19 03:52:43;;;;;;;8.20;3.00;;;15.50;98.70;;;;;;5161992;27;20476;-78
2022/06/19 03:55:12;;;;;;;8.40;2.77;;;15.60;98.70;;;;;;5143650;27;20536;-77
2022/06/19 03:57:41;;;;;;;11.50;3.10;;;15.60;98.50;;;;;;5143074;27;20480;-78
2022/06/19 04:00:11;;;;;;;9.90;3.07;;;15.60;98.40;;;;;;5161320;27;20429;-78
2022/06/19 04:02:39;;;;;;;10.23;3.10;;;15.60;98.40;;;;;;5161344;27;20934;-78
2022/06/19 04:05:10;;;;;;;11.43;3.93;;;15.60;98.30;;;;;;5142535;27;20433;-77
2022/06/19 04:07:44;;;;;;;10.83;4.07;;;15.60;98.30;;;;;;5142719;27;20521;-78
2022/06/19 04:10:12;;;;;;;8.27;2.70;;;15.60;98.30;;;;;;5161058;27;20418;-77
2022/06/19 04:12:40;;;;;;;11.20;3.10;;;15.60;98.30;;;;;;5161186;27;20533;-77
2022/06/19 04:15:10;;;;;;;8.33;3.20;;;15.60;98.30;;;;;;5140850;27;20447;-76
2022/06/19 04:17:38;;;;;;;10.73;4.10;;;15.70;98.30;;;;;;5143745;27;20537;-77
2022/06/19 04:20:09;;;;;;;7.27;2.77;;;15.60;98.20;;;;;;5146057;27;20861;-78
2022/06/19 04:22:39;;;;;;;11.03;3.23;;;15.60;98.20;;;;;;5145215;27;20436;-76
2022/06/19 04:25:13;;;;;;;16.00;4.37;;;15.70;98.20;;;;;;5141737;27;20797;-76
2022/06/19 04:27:42;;;;;;;10.97;3.23;;;15.70;98.30;;;;;;5141310;27;20442;-77
2022/06/19 04:30:11;;;;;;;11.20;3.47;;;15.70;98.40;;;;;;5140759;27;20444;-76
2022/06/19 04:32:40;;;;;;;12.03;3.70;;;15.70;98.40;;;;;;5158808;27;20445;-76
2022/06/19 04:35:09;;;;;;;12.90;5.50;;;15.80;98.60;;;;;;5140900;27;20481;-78
2022/06/19 04:37:41;;;;;;;10.40;3.13;;;15.80;98.70;;;;;;5141593;27;20461;-77
2022/06/19 04:40:11;;;;;;;10.13;3.20;;;15.80;98.80;;;;;;5142172;27;20476;-76
2022/06/19 04:42:39;;;;;;;8.50;3.10;;;15.80;98.80;;;;;;5140871;27;20449;-77
2022/06/19 04:45:09;;;;;;;8.57;3.20;;;15.90;98.90;;;;;;5158548;27;20935;-77
2022/06/19 04:47:37;;;;;;;10.07;4.10;;;15.90;99.00;;;;;;5164830;27;20440;-79
2022/06/19 04:50:06;;;;;;;10.50;4.17;;;16.00;99.10;;;;;;5166111;27;20446;-78
2022/06/19 04:52:34;;;;;;;9.97;2.93;;;16.00;99.10;;;;;;5146258;27;20551;-78
2022/06/19 04:55:04;;;;;;;10.37;4.00;;;16.00;99.20;;;;;;5163294;27;20460;-78
2022/06/19 04:57:34;;;;;;;14.60;3.40;;;16.00;99.20;;;;;;5144986;27;20564;-80
2022/06/19 05:00:04;;;;;;;15.47;4.50;;;16.10;99.30;;;;;;5144095;27;20512;-77
2022/06/19 05:02:32;;;;;;;7.23;3.30;;;16.10;99.30;;;;;;5145004;27;20522;-79
2022/06/19 05:05:00;;;;;;;10.83;3.30;;;16.10;99.40;;;;;;5161721;27;20471;-78
2022/06/19 05:07:28;;;;;;;12.70;3.00;;;16.10;99.30;;;;;;5162301;27;20467;-78
2022/06/19 05:09:57;;;;;;;10.53;3.40;;;16.10;99.40;;;;;;5146993;27;20864;-77
2022/06/19 05:12:26;;;;;;;10.57;2.80;;;16.10;99.40;;;;;;5145372;27;20446;-78
2022/06/19 05:14:54;;;;;;;7.00;2.77;;;16.10;99.70;;;;;;5163896;27;20511;-78
2022/06/19 05:17:23;;;;;;;11.13;3.27;;;16.10;99.40;;;;;;5146015;27;20455;-78
2022/06/19 05:19:51;;;;;;;12.27;3.23;;;16.10;99.30;;;;;;5145780;27;20432;-78
2022/06/19 05:22:19;;;;;;;9.80;2.80;;;16.20;99.40;;;;;;5145244;27;20940;-79
2022/06/19 05:24:47;;;;;;;9.17;3.07;;;16.20;99.40;;;;;;5163083;27;20425;-78
2022/06/19 05:27:16;;;;;;;10.10;3.13;;;16.30;99.40;;;;;;5143766;27;20444;-78
2022/06/19 05:29:46;;;;;;;8.43;2.67;;;16.30;99.30;;;;;;5163253;27;20795;-78
2022/06/19 05:32:14;;;;;;;12.20;3.10;;;16.30;99.20;;;;;;5162498;27;20430;-78
2022/06/19 05:34:42;;;;;;;7.23;2.30;;;16.30;99.10;;;;;;5141021;27;20794;-77
2022/06/19 05:37:15;;;;;;;9.17;3.40;;;16.30;98.90;;;;;;5159199;27;20523;-77
2022/06/19 05:39:44;;;;;;;7.13;2.83;;;16.30;98.90;;;;;;5141023;27;20484;-77
2022/06/19 05:42:19;;;;;;;12.23;4.13;;;16.30;98.80;;;;;;5140395;27;20408;-77
2022/06/19 05:44:49;;;;;;;8.97;2.83;;;16.30;98.80;;;;;;5140606;27;20440;-79
2022/06/19 05:47:17;;;;;;;11.47;3.20;;;16.30;98.90;;;;;;5140585;27;20475;-78
2022/06/19 05:49:46;;;;;;;8.10;2.73;;;16.30;98.90;;;;;;5140925;27;20463;-78
2022/06/19 05:52:17;;;;;;;12.90;3.03;;;16.30;98.90;;;;;;5160045;27;20463;-77
2022/06/19 05:54:45;;;;;;;6.23;2.53;;;16.40;99.00;;;;;;5141207;27;20440;-77
2022/06/19 05:57:14;;;;;;;9.70;2.83;;;16.40;99.00;;;;;;5141206;27;20444;-78
2022/06/19 05:59:43;;;;;;;8.17;2.83;;;16.50;99.00;;;;;;5140385;27;20424;-78
2022/06/19 06:02:14;;;;;;;10.97;3.63;;;16.50;99.00;;;;;;5140832;27;20454;-78
2022/06/19 06:04:43;;;;;;;7.43;4.23;;;16.50;99.00;;;;;;5160422;27;20418;-77
2022/06/19 06:07:12;;;;;;;8.50;3.40;;;16.60;99.30;;;;;;5159358;27;20956;-79
2022/06/19 06:09:40;;;;;;;10.23;2.80;;;16.60;99.00;;;;;;5159533;27;20489;-78
2022/06/19 06:12:09;;;;;;;14.00;3.90;;;16.70;99.00;;;;;;5140306;27;20412;-78
2022/06/19 06:14:37;;;;;;;11.80;3.90;;;16.80;99.00;;;;;;5142150;27;20493;-77
2022/06/19 06:17:05;;;;;;;9.63;3.40;;;16.90;98.90;;;;;;5159576;27;20549;-78
2022/06/19 06:19:35;;;;;;;11.60;3.30;;;17.10;99.00;;;;;;5140888;27;20428;-78
2022/06/19 06:22:04;;;;;;;12.63;3.70;;;17.20;98.80;;;;;;5138739;27;20420;-77
2022/06/19 06:24:33;;;;;;;7.23;2.93;;;17.40;98.70;;;;;;5139440;27;20525;-77
2022/06/19 06:27:05;;;;;;;12.10;3.50;;;17.50;98.60;;;;;;5138822;27;20463;-77
2022/06/19 06:29:34;;;;;;;6.00;2.80;;;17.70;98.60;;;;;;5139785;27;20465;-78
2022/06/19 06:32:02;;;;;;;10.20;3.47;;;17.80;98.40;;;;;;5161124;27;20479;-79
2022/06/19 06:34:31;;;;;;;7.70;3.03;;;17.90;98.30;;;;;;5161325;27;20465;-78
2022/06/19 06:37:00;;;;;;;7.17;3.20;;;18.10;98.10;;;;;;5161307;27;20851;-78
2022/06/19 06:39:28;;;;;;;11.90;3.30;;;18.20;97.80;;;;;;5142103;27;20518;-78
2022/06/19 06:41:56;;;;;;;7.10;2.90;;;18.10;97.60;;;;;;5160334;27;20508;-78
2022/06/19 06:44:25;;;;;;;11.60;3.87;;;18.10;97.60;;;;;;5162160;27;20444;-79
2022/06/19 06:46:53;;;;;;;7.17;3.20;;;18.10;97.40;;;;;;5143235;27;20449;-79
2022/06/19 06:49:21;;;;;;;6.77;3.33;;;18.10;97.30;;;;;;5143380;27;20445;-78
2022/06/19 06:51:49;;;;;;;6.73;2.60;;;18.30;97.10;;;;;;5143237;27;20509;-77
2022/06/19 06:54:19;;;;;;;9.47;2.83;;;18.40;96.80;;;;;;5143701;27;20479;-78
2022/06/19 06:56:48;;;;;;;7.07;2.93;;;18.60;96.60;;;;;;5141743;27;20469;-78
2022/06/19 06:59:16;;;;;;;6.47;2.83;;;18.80;96.60;;;;;;5141840;27;20856;-78
2022/06/19 07:01:44;;;;;;;8.00;3.30;;;18.90;96.30;;;;;;5159916;27;20449;-79
2022/06/19 07:04:13;;;;;;;10.77;4.53;;;18.90;95.90;;;;;;5141854;27;20494;-78
2022/06/19 07:06:41;;;;;;;6.20;2.13;;;18.80;95.40;;;;;;5141079;27;20470;-78
2022/06/19 07:09:09;;;;;;;5.00;2.83;;;18.80;95.30;;;;;;5160041;27;20803;-78
2022/06/19 07:11:41;;;;;;;7.70;2.60;;;18.70;95.10;;;;;;5142411;27;20442;-78
2022/06/19 07:14:09;;;;;;;5.53;2.67;;;18.60;94.90;;;;;;5141873;27;20401;-78
2022/06/19 07:16:38;;;;;;;7.77;2.80;;;18.60;94.70;;;;;;5141644;27;20466;-79
2022/06/19 07:19:06;;;;;;;6.10;2.13;;;18.60;94.50;;;;;;5157975;27;20449;-77
2022/06/19 07:21:34;;;;;;;7.53;2.87;;;18.60;94.30;;;;;;5156392;27;20430;-77
2022/06/19 07:24:03;;;;;;;5.23;2.30;;;18.60;94.20;;;;;;5156611;27;20437;-77
2022/06/19 07:26:32;;;;;;;2.63;2.20;;;18.70;94.20;;;;;;5157367;27;20870;-77
2022/06/19 07:29:02;;;;;;;4.87;2.60;;;18.90;94.00;;;;;;5157984;27;20516;-77
2022/06/19 07:31:35;;;;;;;8.17;2.60;;;19.00;93.90;;;;;;5138752;27;20787;-77
2022/06/19 07:34:04;;;;;;;5.17;2.67;;;19.00;93.70;;;;;;5138212;27;20455;-77
2022/06/19 07:36:32;;;;;;;6.57;2.67;;;19.10;93.60;;;;;;5159641;27;20521;-78
2022/06/19 07:39:01;;;;;;;9.13;3.73;;;19.20;93.50;;;;;;5160264;27;20532;-78
2022/06/19 07:41:29;;;;;;;9.20;2.53;;;19.40;93.40;;;;;;5140020;27;20433;-77
2022/06/19 07:43:57;;;;;;;4.57;2.50;;;19.40;93.10;;;;;;5138390;27;20477;-77
2022/06/19 07:46:27;;;;;;;5.60;2.33;;;19.50;92.90;;;;;;5137492;27;21046;-78
2022/06/19 07:51:41;;;;;;;4.77;2.50;;;19.40;92.30;;;;;;5156716;27;20482;-78
2022/06/19 07:54:09;;;;;;;3.60;1.87;;;19.40;92.20;;;;;;5156312;27;20462;-77
2022/06/19 07:56:37;;;;;;;6.60;2.87;;;19.40;92.10;;;;;;5156619;27;20479;-78
2022/06/19 07:59:05;;;;;;;7.50;2.30;;;19.40;91.90;;;;;;5155903;27;20958;-78
2022/06/19 08:01:35;;;;;;;4.30;1.70;;;19.40;91.70;;;;;;5137586;27;20865;-78
2022/06/19 08:04:23;;;;;;;6.80;3.07;;;19.40;91.60;;;;;;5137637;27;20433;-77
2022/06/19 08:06:52;;;;;;;4.37;2.10;;;19.50;91.50;;;;;;5155961;27;20454;-77
2022/06/19 08:09:20;;;;;;;6.63;2.03;;;19.60;91.30;;;;;;5137537;27;20449;-79
2022/06/19 08:11:48;;;;;;;7.70;2.50;;;19.80;91.00;;;;;;5137405;27;20444;-78
2022/06/19 08:14:17;;;;;;;10.10;2.30;;;20.00;90.70;;;;;;5137855;27;20441;-78
2022/06/19 08:16:46;;;;;;;4.43;2.20;;;20.20;90.70;;;;;;5156209;27;20978;-79
2022/06/19 08:19:21;;;;;;;6.10;2.17;;;20.30;90.60;;;;;;5156663;27;20784;-78
2022/06/19 08:21:49;;;;;;;6.70;1.93;;;20.40;90.50;;;;;;5137664;27;20501;-78
2022/06/19 08:24:18;;;;;;;5.10;2.53;;;20.40;90.40;;;;;;5137361;27;20490;-79
2022/06/19 08:26:46;;;;;;;5.73;2.10;;;20.40;90.50;;;;;;5136961;27;20981;-77
2022/06/19 08:29:14;;;;;;;6.00;1.90;;;20.40;90.40;;;;;;5156324;27;20436;-79
2022/06/19 08:31:42;;;;;;;6.03;1.90;;;20.30;90.40;;;;;;5136790;27;20452;-78
2022/06/19 08:34:12;;;;;;;3.80;2.20;;;20.30;90.40;;;;;;5156460;27;20461;-78
2022/06/19 08:36:40;;;;;;;4.23;1.97;;;20.20;90.20;;;;;;5140784;27;20485;-77
2022/06/19 08:39:13;;;;;;;4.27;2.13;;;20.20;90.20;;;;;;5159279;27;20433;-78
2022/06/19 08:42:01;;;;;;;5.30;2.73;;;20.20;90.10;;;;;;5158740;27;20524;-77
2022/06/19 08:44:55;;;;;;;4.87;2.30;;;20.10;90.00;;;;;;5140099;27;20470;-76
2022/06/19 08:47:40;;;;;;;4.50;2.00;;;20.10;90.00;;;;;;5140832;27;21037;-78
2022/06/19 08:50:21;;;;;;;3.10;2.07;;;20.10;89.80;;;;;;5140760;27;20429;-79
2022/06/19 08:53:04;;;;;;;4.87;2.20;;;20.00;89.30;;;;;;5140482;27;20437;-78
2022/06/19 08:55:44;;;;;;;5.50;2.20;;;19.90;89.30;;;;;;5140054;27;20453;-77
2022/06/19 08:58:22;;;;;;;4.67;2.10;;;19.90;89.20;;;;;;5158847;27;20473;-77
2022/06/19 09:00:57;;;;;;;6.60;2.80;;;19.80;89.00;;;;;;5139667;27;20965;-76
2022/06/19 09:06:28;;;;;;;5.23;2.53;;;19.80;89.40;;;;;;5139295;27;20473;-77
2022/06/19 09:09:14;;;;;;;6.43;2.23;;;19.70;89.00;;;;;;5139682;27;20638;-79
2022/06/19 09:12:06;;;;;;;4.33;2.37;;;19.70;89.50;;;;;;5139926;27;20509;-78
2022/06/19 09:14:42;;;;;;;4.63;2.40;;;19.60;89.90;;;;;;5140004;27;20442;-78
2022/06/19 09:17:12;;;;;;;6.33;2.57;;;19.60;90.00;;;;;;5140061;27;20473;-78
2022/06/19 09:19:52;;;;;;;4.50;2.27;;;19.50;90.10;;;;;;5158718;27;20424;-79
2022/06/19 09:22:50;;;;;;;4.10;2.50;;;19.40;90.00;;;;;;5139983;27;20437;-79
2022/06/19 09:25:38;;;;;;;5.27;2.63;;;19.30;90.20;;;;;;5140418;27;20434;-78
2022/06/19 09:28:13;;;;;;;7.83;2.60;;;19.20;90.30;;;;;;5139980;27;20462;-77
2022/06/19 09:30:47;;;;;;;3.50;2.20;;;19.10;90.50;;;;;;5140499;27;20487;-79
2022/06/19 09:33:21;;;;;;;4.43;2.33;;;19.00;90.80;;;;;;5159531;27;20441;-79
2022/06/19 09:35:56;;;;;;;9.10;3.30;;;19.00;91.00;;;;;;5143453;27;20905;-80
2022/06/19 09:38:32;;;;;;;3.63;2.50;;;18.90;91.30;;;;;;5142145;27;20412;-78
2022/06/19 09:41:04;;;;;;;7.20;3.40;;;18.90;91.70;;;;;;5142177;27;20444;-79
2022/06/19 09:43:39;;;;;;;8.47;3.50;;;18.80;91.90;;;;;;5159273;27;20902;-79
2022/06/19 09:46:14;;;;;;;4.60;2.90;;;18.70;92.30;;;;;;5141611;27;20445;-79
2022/06/19 09:48:51;;;;;;;6.10;3.00;;;18.60;92.50;;;;;;5159857;27;20400;-79
2022/06/19 09:51:24;;;;;;;6.63;3.20;;;18.60;92.80;;;;;;5141659;27;20437;-80
2022/06/19 09:53:58;;;;;;;8.33;3.43;;;18.50;93.00;;;;;;5139400;27;20779;-79
2022/06/19 09:56:36;;;;;;;6.60;3.70;;;18.40;93.20;;;;;;5139821;27;20564;-80
2022/06/19 09:59:12;;;;;;;6.30;2.80;;;18.40;93.50;;;;;;5139605;27;20956;-79
2022/06/19 10:01:43;;;;;;;6.97;3.40;;;18.30;93.60;;;;;;5140056;27;20453;-79
2022/06/19 10:04:16;;;;;;;8.37;3.50;;;18.30;93.80;;;;;;5158437;27;20428;-79
2022/06/19 10:06:48;;;;;;;11.20;4.53;;;18.30;94.10;;;;;;5139691;27;20444;-79
2022/06/19 10:09:25;;;;;;;8.47;3.50;;;18.30;94.30;;;;;;5140297;27;20436;-78
2022/06/19 10:11:58;;;;;;;7.00;3.40;;;18.30;94.40;;;;;;5139053;27;20412;-79
2022/06/19 10:14:33;;;;;;;5.53;3.13;;;18.30;94.50;;;;;;5139342;27;20437;-79
2022/06/19 10:17:06;;;;;;;6.53;3.60;;;18.40;94.70;;;;;;5138765;27;20477;-79
2022/06/19 10:19:43;;;;;;;6.80;3.37;;;18.40;95.00;;;;;;5158418;27;20414;-78
2022/06/19 10:22:26;;;;;;;7.70;3.57;;;18.40;94.80;;;;;;5139031;27;20437;-78
2022/06/19 10:25:21;;;;;;;7.50;3.80;;;18.30;94.90;;;;;;5138999;27;20446;-79
2022/06/19 10:28:01;;;;;;;4.80;3.40;;;18.30;95.10;;;;;;5138450;27;20977;-79
2022/06/19 10:30:36;;;;;;;7.73;3.30;;;18.30;95.20;;;;;;5157454;27;20449;-80
2022/06/19 10:33:19;;;;;;;6.17;3.13;;;18.20;95.30;;;;;;5157057;27;20508;-78
2022/06/19 10:35:52;;;;;;;4.20;2.50;;;18.20;95.50;;;;;;5138419;27;20441;-77
2022/06/19 10:38:45;;;;;;;6.40;3.23;;;18.20;95.60;;;;;;5138620;27;20467;-78
2022/06/19 10:44:23;;;;;;;6.40;3.53;;;18.20;95.70;;;;;;5141006;27;20969;-78
2022/06/19 10:46:57;;;;;;;6.20;3.53;;;18.20;95.60;;;;;;5157123;27;20452;-77
2022/06/19 10:49:35;;;;;;;3.60;3.03;;;18.20;95.60;;;;;;5138178;27;20441;-78
2022/06/19 10:52:12;;;;;;;5.90;3.33;;;18.20;95.60;;;;;;5137812;27;20879;-79
2022/06/19 10:54:59;;;;;;;6.70;3.30;;;18.20;95.70;;;;;;5138250;27;20480;-79
2022/06/19 10:57:45;;;;;;;8.20;3.60;;;18.20;95.80;;;;;;5137425;27;20569;-78
2022/06/19 11:00:14;;;;;;;5.30;4.00;;;18.10;95.80;;;;;;5157251;27;20457;-79
2022/06/19 11:05:39;;;;;;;5.70;3.47;;;18.10;96.00;;;;;;5157253;27;20405;-80
2022/06/19 11:08:08;;;;;;;7.60;4.20;;;18.00;96.00;;;;;;5138385;27;20504;-80
2022/06/19 11:10:40;;;;;;;6.70;3.50;;;18.00;96.10;;;;;;5138267;27;20515;-81
2022/06/19 11:13:12;;;;;;;6.13;3.33;;;17.90;96.10;;;;;;5138174;27;20540;-80
2022/06/19 11:15:43;;;;;;;5.53;4.33;;;17.90;96.30;;;;;;5137974;27;20448;-80
2022/06/19 11:18:15;;;;;;;5.97;3.63;;;17.80;96.30;;;;;;5156717;27;20514;-80
2022/06/19 11:20:55;;;;;;;7.53;5.10;;;17.80;96.80;;;;;;5157678;27;20487;-79
2022/06/19 11:23:29;;;;;;;4.03;2.97;;;17.70;96.70;;;;;;5138290;27;20441;-80
2022/06/19 11:26:02;;;;;;;5.40;3.00;;;17.70;96.70;;;;;;5137645;27;20832;-80
2022/06/19 11:28:51;;;;;;;3.90;3.00;;;17.60;96.70;;;;;;5156530;27;20422;-81
2022/06/19 11:31:22;;;;;;;3.97;2.90;;;17.60;96.50;;;;;;5137786;27;20524;-77
2022/06/19 11:34:01;;;;;;;3.90;2.70;;;17.50;96.40;;;;;;5137493;27;20445;-80
2022/06/19 11:36:34;;;;;;;4.60;2.80;;;17.50;96.50;;;;;;5157158;27;20473;-78
2022/06/19 11:39:18;;;;;;;6.77;3.97;;;17.40;96.50;;;;;;5137786;27;20807;-79
2022/06/19 11:41:47;;;;;;;3.87;3.30;;;17.40;96.60;;;;;;5155356;27;20555;-79
2022/06/19 11:44:19;;;;;;;4.50;3.30;;;17.40;96.70;;;;;;5137815;27;20499;-78
2022/06/19 11:46:50;;;;;;;5.73;3.50;;;17.40;96.90;;;;;;5137661;27;20461;-78
2022/06/19 11:49:25;;;;;;;4.80;2.70;;;17.40;96.90;;;;;;5137863;27;20465;-79
2022/06/19 11:52:05;;;;;;;8.60;4.90;;;17.40;97.00;;;;;;5137898;27;20418;-78
2022/06/19 11:54:37;;;;;;;5.70;3.73;;;17.40;97.00;;;;;;5137849;27;20961;-80
2022/06/19 11:57:06;;;;;;;6.47;4.03;;;17.40;97.10;;;;;;5158653;27;20461;-79
2022/06/19 11:59:44;;;;;;;8.67;3.90;;;17.40;97.20;;;;;;5137419;27;20792;-78
2022/06/19 12:02:26;;;;;;;5.60;3.47;;;17.40;97.30;;;;;;5155822;27;20973;-77
2022/06/19 12:04:56;;;;;;;5.97;3.87;;;17.40;97.40;;;;;;5156009;27;20401;-79
2022/06/19 12:07:29;;;;;;;5.47;4.30;;;17.40;97.50;;;;;;5156188;27;20835;-79
2022/06/19 12:10:01;;;;;;;6.87;4.10;;;17.50;97.70;;;;;;5160078;27;20396;-79
2022/06/19 12:12:31;;;;;;;5.83;3.90;;;17.50;97.70;;;;;;5141495;27;20419;-78
2022/06/19 12:15:04;;;;;;;5.87;4.40;;;17.50;97.90;;;;;;5141901;27;20412;-79
2022/06/19 12:17:41;;;;;;;4.90;4.40;;;17.50;98.00;;;;;;5141377;27;20527;-80
2022/06/19 12:20:23;;;;;;;5.10;4.60;;;17.60;98.10;;;;;;5141256;27;20971;-78
2022/06/19 12:23:07;;;;;;;7.73;6.30;;;17.60;98.10;;;;;;5141214;27;20473;-77
2022/06/19 12:25:44;;;;;;;4.63;4.03;;;17.60;98.10;;;;;;5140561;27;20411;-77
2022/06/19 12:28:23;;;;;;;5.60;4.90;;;17.60;98.20;;;;;;5140359;27;21127;-78
2022/06/19 12:30:56;;;;;;;5.27;4.47;;;17.50;98.20;;;;;;5159648;27;20441;-78
2022/06/19 12:33:40;;;;;;;5.23;4.00;;;17.50;98.30;;;;;;5141159;27;20843;-79
2022/06/19 12:36:14;;;;;;;4.73;4.43;;;17.50;98.40;;;;;;5141794;27;20473;-78
2022/06/19 12:38:48;;;;;;;4.07;2.90;;;17.60;98.50;;;;;;5140796;27;20453;-77
2022/06/19 12:41:34;;;;;;;4.20;2.60;;;17.60;98.50;;;;;;5160117;27;20516;-77
2022/06/19 12:44:21;;;;;;;3.73;2.53;;;17.60;98.40;;;;;;5159586;27;20985;-78
2022/06/19 12:47:03;;;;;;;5.03;2.90;;;17.60;98.40;;;;;;5159650;27;20438;-78
2022/06/19 12:49:53;;;;;;;3.03;2.33;;;17.60;98.40;;;;;;5140637;27;20476;-79
2022/06/19 12:52:33;;;;;;;3.43;2.53;;;17.60;98.30;;;;;;5138633;27;20412;-79
2022/06/19 12:55:26;;;;;;;3.13;1.97;;;17.60;98.30;;;;;;5139929;27;20597;-77
2022/06/19 12:58:07;;;;;;;3.33;2.60;;;17.50;98.20;;;;;;5140098;27;20451;-78
2022/06/19 13:00:43;;;;;;;5.43;4.80;;;17.50;98.20;;;;;;5141000;27;20915;-78
2022/06/19 13:03:55;;;;;;;5.33;3.40;;;17.50;98.20;;;;;;5141248;27;20430;-79
2022/06/19 13:06:42;;;;;;;5.37;2.87;;;17.50;98.20;;;;;;5156623;27;20444;-78
2022/06/19 13:09:43;;;;;;;4.17;3.77;;;17.50;98.20;;;;;;5140074;27;20436;-77
2022/06/19 13:12:19;;;;;;;4.40;3.20;;;17.50;98.10;;;;;;5140072;27;20821;-77
2022/06/19 13:15:07;;;;;;;5.40;2.67;;;17.60;98.20;;;;;;5159383;27;20399;-79
2022/06/19 13:17:45;;;;;;;4.63;2.40;;;17.60;98.20;;;;;;5140002;27;20448;-79
2022/06/19 13:20:28;;;;;;;4.53;2.53;;;17.60;98.10;;;;;;5140007;27;20528;-80
2022/06/19 13:23:06;;;;;;;6.17;3.23;;;17.60;98.00;;;;;;5139865;27;20506;-78